Time;durP1;ratioP1;P1;durP2;ratioP2;P2;SDS_P1;SDS_P2;PMS_P1;PMS_P2;Temp;Humidity;BMP_temperature;BMP_pressure;BME280_temperature;BME280_humidity;BME280_pressure;Samples;Min_cycle;Max_cycle;Signal;HPM_P1;HPM_P2
2022/10/05 00:00:14;;;;;;;12.40;7.95;;;13.90;99.90;;;;;;4945493;29;20306;-79
2022/10/05 00:02:41;;;;;;;10.95;7.80;;;13.80;99.90;;;;;;4943441;29;20204;-79
2022/10/05 00:05:19;;;;;;;13.93;7.85;;;14.00;99.90;;;;;;4944953;29;20223;-80
2022/10/05 00:07:46;;;;;;;14.20;8.82;;;13.90;99.90;;;;;;4950111;29;20235;-80
2022/10/05 00:10:17;;;;;;;13.73;7.57;;;13.90;99.90;;;;;;4946275;29;20229;-79
2022/10/05 00:12:47;;;;;;;12.70;8.25;;;14.00;99.90;;;;;;4943682;29;20231;-80
2022/10/05 00:15:16;;;;;;;12.20;8.57;;;14.00;99.90;;;;;;4944524;29;20243;-77
2022/10/05 00:17:43;;;;;;;10.95;8.60;;;14.00;99.90;;;;;;4937601;29;20216;-81
2022/10/05 00:20:23;;;;;;;13.98;8.77;;;14.00;99.90;;;;;;4945961;29;20315;-80
2022/10/05 00:22:55;;;;;;;11.00;8.77;;;14.00;99.90;;;;;;4942549;29;20226;-82
2022/10/05 00:25:22;;;;;;;12.00;7.35;;;14.10;99.90;;;;;;4947914;29;20200;-79
2022/10/05 00:27:55;;;;;;;15.95;8.85;;;14.10;99.90;;;;;;4938140;29;20298;-79
2022/10/05 00:30:23;;;;;;;11.77;8.95;;;14.10;99.90;;;;;;4944218;29;20227;-78
2022/10/05 00:32:50;;;;;;;17.50;8.80;;;14.00;99.90;;;;;;4933710;29;20279;-80
2022/10/05 00:35:19;;;;;;;10.77;7.68;;;14.00;99.90;;;;;;4947598;29;20219;-80
2022/10/05 00:37:51;;;;;;;11.40;9.40;;;14.00;99.90;;;;;;4940194;29;20251;-79
2022/10/05 00:40:32;;;;;;;11.90;8.15;;;14.00;99.90;;;;;;4943683;29;20234;-80
2022/10/05 00:43:27;;;;;;;11.00;8.20;;;14.00;99.90;;;;;;4932301;29;20212;-78
2022/10/05 00:46:05;;;;;;;13.05;8.32;;;14.10;99.90;;;;;;4940805;29;20274;-80
2022/10/05 00:48:39;;;;;;;12.88;9.13;;;14.10;99.90;;;;;;4936326;29;20259;-78
2022/10/05 00:51:23;;;;;;;13.00;7.60;;;14.20;99.90;;;;;;4950497;29;20598;-80
2022/10/05 00:54:00;;;;;;;13.98;9.00;;;14.30;99.90;;;;;;4943398;29;20592;-78
2022/10/05 00:56:45;;;;;;;9.05;7.15;;;14.30;99.90;;;;;;4950984;29;20744;-79
2022/10/05 00:59:22;;;;;;;13.02;8.68;;;14.30;99.90;;;;;;4938205;29;20300;-75
2022/10/05 01:01:57;;;;;;;10.80;7.85;;;14.30;99.90;;;;;;4944187;29;20208;-80
2022/10/05 01:04:33;;;;;;;13.00;8.40;;;14.30;99.90;;;;;;4941769;29;20234;-80
2022/10/05 01:07:11;;;;;;;10.43;8.00;;;14.20;99.90;;;;;;4938091;29;20211;-79
2022/10/05 01:09:46;;;;;;;13.05;9.05;;;14.20;99.90;;;;;;4945500;29;20294;-77
2022/10/05 01:12:21;;;;;;;8.57;7.38;;;14.20;99.90;;;;;;4945464;29;20302;-78
2022/10/05 01:14:56;;;;;;;11.30;7.75;;;14.20;99.90;;;;;;4947988;29;20214;-77
2022/10/05 01:17:32;;;;;;;12.52;8.98;;;14.30;99.90;;;;;;4943743;29;20235;-79
2022/10/05 01:20:25;;;;;;;11.50;7.68;;;14.30;99.90;;;;;;4948143;29;20326;-79
2022/10/05 01:23:18;;;;;;;12.35;8.00;;;14.20;99.90;;;;;;4941902;29;20290;-79
2022/10/05 01:25:56;;;;;;;14.57;8.07;;;14.30;99.90;;;;;;4927813;29;20720;-79
2022/10/05 01:28:31;;;;;;;10.43;7.80;;;14.30;99.90;;;;;;4948398;29;20267;-80
2022/10/05 01:31:06;;;;;;;11.27;8.98;;;14.30;99.90;;;;;;4948341;29;20243;-79
2022/10/05 01:33:38;;;;;;;11.73;7.55;;;14.30;99.90;;;;;;4946482;29;20263;-78
2022/10/05 01:36:14;;;;;;;11.65;8.30;;;14.50;99.90;;;;;;4948364;29;20242;-79
2022/10/05 01:38:48;;;;;;;9.85;7.70;;;14.40;99.90;;;;;;4948239;29;20283;-78
2022/10/05 01:41:27;;;;;;;9.43;8.43;;;14.40;99.90;;;;;;4943726;29;20247;-78
2022/10/05 01:43:59;;;;;;;13.00;9.15;;;14.40;99.90;;;;;;4943686;29;20321;-77
2022/10/05 01:46:35;;;;;;;11.10;8.63;;;14.30;99.90;;;;;;4935373;29;20281;-78
2022/10/05 01:49:35;;;;;;;14.82;8.70;;;14.30;99.90;;;;;;4938390;28;20240;-77
2022/10/05 01:52:12;;;;;;;14.63;9.18;;;14.20;99.90;;;;;;4954178;28;20234;-80
2022/10/05 01:55:03;;;;;;;11.43;8.88;;;14.30;99.90;;;;;;4949204;28;20210;-78
2022/10/05 01:57:42;;;;;;;14.13;8.88;;;14.10;99.90;;;;;;4937153;29;20271;-78
2022/10/05 02:00:12;;;;;;;12.52;9.38;;;14.20;99.90;;;;;;4938312;29;20311;-79
2022/10/05 02:02:42;;;;;;;12.93;8.40;;;14.30;99.90;;;;;;4945057;29;20208;-78
2022/10/05 02:05:13;;;;;;;15.05;9.07;;;14.30;99.90;;;;;;4946663;29;20272;-78
2022/10/05 02:07:45;;;;;;;16.55;8.88;;;14.40;99.90;;;;;;4942472;29;20229;-80
2022/10/05 02:10:20;;;;;;;14.63;9.48;;;14.30;99.90;;;;;;4943531;29;20223;-79
2022/10/05 02:12:51;;;;;;;13.70;10.00;;;14.30;99.90;;;;;;4941994;29;20199;-79
2022/10/05 02:15:24;;;;;;;10.82;9.18;;;14.40;99.90;;;;;;4939703;29;20249;-79
2022/10/05 02:17:56;;;;;;;15.63;8.27;;;14.40;99.90;;;;;;4943574;29;20211;-79
2022/10/05 02:20:27;;;;;;;16.02;8.57;;;14.50;99.90;;;;;;4941928;29;20233;-79
2022/10/05 02:22:58;;;;;;;12.98;9.63;;;14.40;99.90;;;;;;4934755;29;20617;-79
2022/10/05 02:25:30;;;;;;;15.90;9.50;;;14.40;99.90;;;;;;4937865;29;20208;-78
2022/10/05 02:28:02;;;;;;;15.55;9.73;;;14.40;99.90;;;;;;4930116;29;20310;-78
2022/10/05 02:30:33;;;;;;;13.55;9.90;;;14.50;99.90;;;;;;4942533;29;20228;-82
2022/10/05 02:33:05;;;;;;;10.35;8.57;;;14.50;99.90;;;;;;4938427;29;20707;-81
2022/10/05 02:35:32;;;;;;;12.82;9.05;;;14.50;99.90;;;;;;4933314;29;20222;-81
2022/10/05 02:38:08;;;;;;;12.90;9.05;;;14.50;99.90;;;;;;4934871;29;20227;-79
2022/10/05 02:40:49;;;;;;;12.70;8.43;;;14.50;99.90;;;;;;4940250;29;20241;-78
2022/10/05 02:43:26;;;;;;;13.60;8.73;;;14.50;99.90;;;;;;4936220;29;20265;-77
2022/10/05 02:46:01;;;;;;;13.85;8.65;;;14.50;99.90;;;;;;4944046;29;20257;-79
2022/10/05 02:48:39;;;;;;;15.43;9.23;;;14.40;99.90;;;;;;4935667;29;20263;-81
2022/10/05 02:51:15;;;;;;;10.75;9.65;;;14.40;99.90;;;;;;4943346;29;20785;-79
2022/10/05 02:53:53;;;;;;;10.55;8.38;;;14.40;99.90;;;;;;4940094;29;20226;-81
2022/10/05 02:56:26;;;;;;;10.82;9.02;;;14.40;99.90;;;;;;4945901;29;20208;-78
2022/10/05 02:59:00;;;;;;;12.63;10.02;;;14.50;99.90;;;;;;4946253;29;20240;-78
2022/10/05 03:01:33;;;;;;;12.98;10.48;;;14.40;99.90;;;;;;4947568;29;20224;-77
2022/10/05 03:04:10;;;;;;;16.05;10.27;;;14.40;99.90;;;;;;4943687;29;20200;-79
2022/10/05 03:06:46;;;;;;;9.25;8.25;;;14.50;99.90;;;;;;4932200;29;20234;-82
2022/10/05 03:09:15;;;;;;;12.90;9.25;;;14.50;99.90;;;;;;4940935;29;20199;-79
2022/10/05 03:11:51;;;;;;;13.15;9.90;;;14.40;99.90;;;;;;4942019;29;20224;-79
2022/10/05 03:14:23;;;;;;;15.85;9.93;;;14.40;99.90;;;;;;4944973;29;20195;-79
2022/10/05 03:17:05;;;;;;;22.70;8.98;;;14.30;99.90;;;;;;4938613;29;20270;-79
2022/10/05 03:19:49;;;;;;;12.85;9.50;;;14.30;99.90;;;;;;4947162;29;20712;-82
2022/10/05 03:22:26;;;;;;;15.45;9.73;;;14.30;99.90;;;;;;4933738;29;20204;-79
2022/10/05 03:25:18;;;;;;;13.35;10.13;;;14.40;99.90;;;;;;4945342;29;20219;-79
2022/10/05 03:27:52;;;;;;;13.70;9.23;;;14.40;99.90;;;;;;4945863;29;20263;-80
2022/10/05 03:30:22;;;;;;;16.20;9.13;;;14.40;99.90;;;;;;4948522;29;20250;-80
2022/10/05 03:33:01;;;;;;;16.20;11.65;;;14.50;99.90;;;;;;4942029;29;20235;-79
2022/10/05 03:35:31;;;;;;;13.48;9.40;;;14.50;99.90;;;;;;4935950;29;20236;-79
2022/10/05 03:38:08;;;;;;;11.23;9.52;;;14.50;99.90;;;;;;4936907;29;20275;-80
2022/10/05 03:40:39;;;;;;;17.02;10.18;;;14.60;99.90;;;;;;4946258;29;20327;-81
2022/10/05 03:43:27;;;;;;;11.95;9.60;;;14.50;99.90;;;;;;4935093;29;20207;-78
2022/10/05 03:46:00;;;;;;;13.65;9.23;;;14.60;99.90;;;;;;4939143;29;20306;-81
2022/10/05 03:48:33;;;;;;;14.23;11.02;;;14.60;99.90;;;;;;4945320;29;20665;-81
2022/10/05 03:51:07;;;;;;;18.60;9.75;;;14.60;99.90;;;;;;4945960;29;20307;-79
2022/10/05 03:53:41;;;;;;;14.98;10.70;;;14.60;99.90;;;;;;4951175;29;20296;-78
2022/10/05 03:56:15;;;;;;;14.73;10.75;;;14.70;99.90;;;;;;4950404;29;20271;-80
2022/10/05 03:58:50;;;;;;;12.40;9.45;;;14.70;99.90;;;;;;4950474;29;20286;-78
2022/10/05 04:01:22;;;;;;;17.17;11.00;;;14.70;99.90;;;;;;4952711;29;20229;-79
2022/10/05 04:03:55;;;;;;;20.70;11.40;;;14.60;99.90;;;;;;4951475;29;20209;-77
2022/10/05 04:06:25;;;;;;;11.20;9.82;;;14.60;99.90;;;;;;4945160;29;20227;-77
2022/10/05 04:08:56;;;;;;;12.88;9.73;;;14.60;99.90;;;;;;4954425;29;20239;-80
2022/10/05 04:11:29;;;;;;;13.60;10.10;;;14.70;99.90;;;;;;4948679;29;20220;-78
2022/10/05 04:14:02;;;;;;;15.10;10.00;;;14.70;99.90;;;;;;4944206;29;20709;-81
2022/10/05 04:16:34;;;;;;;14.63;10.55;;;14.70;99.90;;;;;;4932612;29;20217;-81
2022/10/05 04:19:10;;;;;;;12.32;11.10;;;14.70;99.90;;;;;;4939005;29;20521;-78
2022/10/05 04:21:53;;;;;;;16.02;11.93;;;14.80;99.90;;;;;;4949100;29;20223;-78
2022/10/05 04:24:30;;;;;;;17.23;11.20;;;14.80;99.90;;;;;;4939967;29;20228;-79
2022/10/05 04:27:00;;;;;;;15.90;11.48;;;14.70;99.90;;;;;;4946717;29;20365;-80
2022/10/05 04:29:33;;;;;;;16.92;10.23;;;14.70;99.90;;;;;;4943854;29;20207;-78
2022/10/05 04:32:21;;;;;;;16.33;10.55;;;14.60;99.90;;;;;;4938151;29;20197;-80
2022/10/05 04:34:59;;;;;;;18.13;11.68;;;14.50;99.90;;;;;;4944032;29;20232;-79
2022/10/05 04:37:35;;;;;;;13.75;11.13;;;14.50;99.90;;;;;;4943208;29;20195;-81
2022/10/05 04:40:19;;;;;;;18.60;11.88;;;14.40;99.90;;;;;;4946228;29;20254;-77
2022/10/05 04:42:58;;;;;;;16.15;11.82;;;14.40;99.90;;;;;;4946615;29;20199;-79
2022/10/05 04:45:37;;;;;;;21.40;11.73;;;14.30;99.90;;;;;;4937444;29;20659;-80
2022/10/05 04:48:32;;;;;;;18.17;12.13;;;14.30;99.90;;;;;;4945721;29;20295;-79
2022/10/05 04:51:17;;;;;;;18.42;12.52;;;14.20;99.90;;;;;;4949998;29;20223;-79
2022/10/05 04:53:51;;;;;;;18.92;11.52;;;14.20;99.90;;;;;;4936953;29;20239;-79
2022/10/05 04:56:24;;;;;;;14.82;12.73;;;14.30;99.90;;;;;;4946601;29;20208;-76
2022/10/05 04:59:12;;;;;;;16.35;12.98;;;14.30;99.90;;;;;;4949414;29;20208;-79
2022/10/05 05:01:50;;;;;;;20.10;14.13;;;14.30;99.90;;;;;;4946462;29;20303;-79
2022/10/05 05:04:33;;;;;;;17.27;14.02;;;14.30;99.90;;;;;;4934115;29;20259;-81
2022/10/05 05:07:12;;;;;;;21.67;13.57;;;14.20;99.90;;;;;;4943714;29;20286;-79
2022/10/05 05:10:12;;;;;;;15.50;13.25;;;14.30;99.90;;;;;;4944678;29;20272;-79
2022/10/05 05:12:47;;;;;;;17.23;14.55;;;14.30;99.90;;;;;;4933934;29;20288;-80
2022/10/05 05:15:28;;;;;;;16.40;13.13;;;14.30;99.90;;;;;;4943200;29;20286;-79
2022/10/05 05:18:10;;;;;;;21.05;13.77;;;14.30;99.90;;;;;;4946464;29;20215;-81
2022/10/05 05:20:51;;;;;;;18.17;14.43;;;14.20;99.90;;;;;;4947901;29;20267;-79
2022/10/05 05:23:29;;;;;;;21.60;12.85;;;14.20;99.90;;;;;;4936538;29;20295;-79
2022/10/05 05:26:05;;;;;;;26.52;15.25;;;14.20;99.90;;;;;;4940226;29;20231;-82
2022/10/05 05:28:40;;;;;;;18.70;12.80;;;14.10;99.90;;;;;;4947514;29;20408;-80
2022/10/05 05:31:15;;;;;;;17.70;12.18;;;14.10;99.90;;;;;;4944201;29;20247;-81
2022/10/05 05:33:51;;;;;;;23.00;13.57;;;14.10;99.90;;;;;;4940105;28;20222;-80
2022/10/05 05:36:46;;;;;;;17.25;12.77;;;14.20;99.90;;;;;;4952742;28;20204;-79
2022/10/05 05:39:24;;;;;;;15.32;13.63;;;14.10;99.90;;;;;;4949991;29;20211;-79
2022/10/05 05:42:01;;;;;;;17.98;13.30;;;14.20;99.90;;;;;;4951906;29;20268;-77
2022/10/05 05:44:31;;;;;;;20.13;14.77;;;14.20;99.90;;;;;;4950398;29;20253;-78
2022/10/05 05:47:02;;;;;;;20.33;13.50;;;14.20;99.90;;;;;;4952211;29;20235;-77
2022/10/05 05:49:41;;;;;;;18.13;14.38;;;14.20;99.90;;;;;;4946949;29;20227;-81
2022/10/05 05:52:16;;;;;;;17.23;13.02;;;14.20;99.90;;;;;;4939242;29;20227;-79
2022/10/05 05:54:49;;;;;;;19.58;13.63;;;14.30;99.90;;;;;;4948801;29;20302;-79
2022/10/05 05:57:21;;;;;;;22.95;12.55;;;14.30;99.90;;;;;;4939852;29;20195;-79
2022/10/05 06:00:05;;;;;;;16.20;13.80;;;14.30;99.90;;;;;;4949389;29;20263;-78
2022/10/05 06:05:28;;;;;;;18.00;13.60;;;14.30;99.90;;;;;;1419029;26;20346;-76
2022/10/05 06:07:57;;;;;;;15.00;13.40;;;14.30;99.90;;;;;;5009755;28;20262;-78
2022/10/05 06:10:33;;;;;;;19.38;13.57;;;14.30;99.90;;;;;;5013993;28;20284;-75
2022/10/05 06:13:06;;;;;;;21.52;15.05;;;14.40;99.90;;;;;;5023542;28;20222;-78
2022/10/05 06:15:38;;;;;;;17.77;12.93;;;14.40;99.90;;;;;;5022398;28;20296;-74
2022/10/05 06:18:11;;;;;;;17.45;13.95;;;14.50;99.90;;;;;;5021262;28;20314;-77
2022/10/05 06:20:42;;;;;;;20.70;13.82;;;14.50;99.90;;;;;;5026062;28;20237;-75
2022/10/05 06:23:16;;;;;;;19.42;12.55;;;14.50;99.90;;;;;;5013016;28;20217;-74
2022/10/05 06:25:58;;;;;;;19.20;14.38;;;14.60;99.90;;;;;;5018477;28;20278;-78
2022/10/05 06:28:26;;;;;;;45.00;13.82;;;14.60;99.90;;;;;;5023162;28;20297;-74
2022/10/05 06:31:03;;;;;;;15.40;11.10;;;14.60;99.90;;;;;;5021674;28;20216;-77
2022/10/05 06:33:46;;;;;;;17.95;14.32;;;14.70;99.90;;;;;;5014885;28;20272;-76
2022/10/05 06:36:23;;;;;;;18.27;12.45;;;14.70;99.90;;;;;;5024245;28;20204;-75
2022/10/05 06:39:17;;;;;;;18.45;12.90;;;14.70;99.90;;;;;;5013573;28;20586;-76
2022/10/05 06:42:01;;;;;;;16.48;12.75;;;14.80;99.90;;;;;;5013858;28;20220;-75
2022/10/05 06:44:36;;;;;;;19.02;13.00;;;14.80;99.90;;;;;;5017652;28;20198;-75
2022/10/05 06:47:12;;;;;;;20.55;13.18;;;15.00;99.90;;;;;;5018044;28;20230;-76
2022/10/05 06:49:50;;;;;;;18.73;12.57;;;15.00;99.90;;;;;;5002627;28;20225;-75
2022/10/05 06:52:26;;;;;;;20.02;13.65;;;15.10;99.90;;;;;;5018803;28;20273;-76
2022/10/05 06:55:05;;;;;;;20.08;13.63;;;15.20;99.90;;;;;;5012037;28;20232;-77
2022/10/05 06:57:53;;;;;;;16.67;12.50;;;15.10;99.90;;;;;;5030216;28;20300;-76
2022/10/05 07:00:23;;;;;;;15.73;12.47;;;15.20;99.90;;;;;;5028477;28;20222;-77
2022/10/05 07:02:57;;;;;;;20.52;11.48;;;15.10;99.90;;;;;;5030993;28;20446;-75
2022/10/05 07:05:59;;;;;;;18.13;13.10;;;15.20;99.90;;;;;;5036334;28;20233;-74
2022/10/05 07:08:40;;;;;;;17.35;12.48;;;15.30;99.90;;;;;;5031225;28;20225;-76
2022/10/05 07:11:18;;;;;;;19.97;12.77;;;15.30;99.90;;;;;;5036833;28;20195;-74
2022/10/05 07:14:03;;;;;;;16.80;11.60;;;15.30;99.90;;;;;;5025671;28;20492;-74
2022/10/05 07:16:40;;;;;;;19.95;14.70;;;15.30;99.90;;;;;;5023745;28;20942;-76
2022/10/05 07:19:17;;;;;;;15.43;12.23;;;15.30;99.90;;;;;;5018348;28;20227;-76
2022/10/05 07:21:53;;;;;;;16.45;12.30;;;15.30;99.90;;;;;;5022019;28;20245;-74
2022/10/05 07:24:30;;;;;;;18.63;13.43;;;15.20;99.90;;;;;;5015041;28;20207;-73
2022/10/05 07:27:08;;;;;;;14.55;12.13;;;15.20;99.90;;;;;;5019233;28;20204;-77
2022/10/05 07:29:45;;;;;;;17.98;14.15;;;15.20;99.90;;;;;;5017267;28;20926;-74
2022/10/05 07:32:24;;;;;;;16.23;12.15;;;15.20;99.90;;;;;;5014811;28;20264;-78
2022/10/05 07:34:59;;;;;;;17.05;12.15;;;15.30;99.90;;;;;;5006107;28;20245;-74
2022/10/05 07:37:53;;;;;;;16.20;12.83;;;15.30;99.90;;;;;;5010893;28;20763;-76
2022/10/05 07:40:27;;;;;;;17.67;13.85;;;15.30;99.90;;;;;;4999512;28;20917;-76
2022/10/05 07:43:06;;;;;;;15.77;12.63;;;15.30;99.90;;;;;;5006074;28;20231;-75
2022/10/05 07:45:44;;;;;;;20.48;11.90;;;15.30;99.90;;;;;;5007707;28;20532;-75
2022/10/05 07:48:17;;;;;;;22.95;12.80;;;15.40;99.90;;;;;;5014907;28;20309;-75
2022/10/05 07:50:57;;;;;;;26.92;13.35;;;15.20;99.90;;;;;;5001563;28;20226;-75
2022/10/05 07:53:28;;;;;;;15.27;11.40;;;15.20;99.90;;;;;;5005216;28;20213;-76
2022/10/05 07:55:58;;;;;;;23.23;11.95;;;15.20;99.90;;;;;;5018926;28;20289;-77
2022/10/05 07:58:28;;;;;;;25.63;12.35;;;15.20;99.90;;;;;;5021632;28;20309;-77
2022/10/05 08:01:07;;;;;;;18.98;13.60;;;15.30;99.90;;;;;;5012327;28;20213;-75
2022/10/05 08:03:44;;;;;;;15.23;11.60;;;15.40;99.90;;;;;;5017137;28;20210;-77
2022/10/05 08:06:29;;;;;;;24.38;12.65;;;15.50;99.90;;;;;;5015429;28;20531;-77
2022/10/05 08:09:02;;;;;;;21.90;12.60;;;15.80;99.90;;;;;;5001733;28;20317;-75
2022/10/05 08:11:36;;;;;;;13.55;10.52;;;15.90;99.90;;;;;;5003906;28;20239;-78
2022/10/05 08:14:15;;;;;;;14.82;9.88;;;16.00;99.90;;;;;;5014291;28;20270;-77
2022/10/05 08:16:47;;;;;;;14.83;9.83;;;16.00;99.90;;;;;;5021863;28;20208;-77
2022/10/05 08:19:22;;;;;;;16.00;10.80;;;16.20;99.90;;;;;;5020547;28;20506;-79
2022/10/05 08:21:54;;;;;;;14.57;8.60;;;16.40;99.90;;;;;;5012612;28;20510;-74
2022/10/05 08:24:38;;;;;;;12.00;9.70;;;16.50;99.90;;;;;;5019463;28;20542;-76
2022/10/05 08:27:09;;;;;;;15.23;9.37;;;16.50;99.90;;;;;;5016787;28;20504;-75
2022/10/05 08:29:42;;;;;;;12.60;8.47;;;16.60;99.90;;;;;;5023201;28;20473;-78
2022/10/05 08:32:17;;;;;;;14.30;10.33;;;16.50;99.90;;;;;;5018809;28;20445;-73
2022/10/05 08:34:50;;;;;;;18.77;10.60;;;16.50;99.90;;;;;;5018823;28;20448;-77
2022/10/05 08:37:22;;;;;;;16.33;9.90;;;16.30;99.90;;;;;;5022617;28;20481;-76
2022/10/05 08:39:54;;;;;;;14.50;8.50;;;16.40;99.90;;;;;;5021465;28;20542;-74
2022/10/05 08:42:52;;;;;;;14.10;9.83;;;16.60;99.90;;;;;;5019904;28;20581;-76
2022/10/05 08:45:51;;;;;;;16.87;9.40;;;16.70;99.90;;;;;;5007036;28;20479;-79
2022/10/05 08:48:42;;;;;;;12.03;9.23;;;16.80;99.90;;;;;;5000684;28;20545;-74
2022/10/05 08:51:49;;;;;;;14.30;9.20;;;16.80;99.90;;;;;;5021361;28;20464;-74
2022/10/05 08:54:38;;;;;;;11.50;8.40;;;16.90;99.90;;;;;;5024137;28;20459;-75
2022/10/05 08:57:46;;;;;;;11.10;9.43;;;17.00;99.90;;;;;;5024078;28;20807;-77
2022/10/05 09:00:17;;;;;;;23.70;9.70;;;17.20;99.90;;;;;;5019266;28;20447;-74
2022/10/05 09:03:22;;;;;;;9.70;8.10;;;17.10;99.90;;;;;;5031576;28;20486;-77
2022/10/05 09:06:15;;;;;;;12.17;9.30;;;17.10;99.90;;;;;;5006337;28;20517;-75
2022/10/05 09:09:19;;;;;;;15.33;10.63;;;16.90;99.90;;;;;;5023129;28;20487;-76
2022/10/05 09:12:00;;;;;;;11.70;9.53;;;16.70;99.90;;;;;;5025767;28;20443;-76
2022/10/05 09:14:41;;;;;;;13.60;8.00;;;16.60;99.90;;;;;;5004436;28;20519;-75
2022/10/05 09:17:20;;;;;;;11.00;9.40;;;16.40;99.90;;;;;;5019224;28;20833;-75
2022/10/05 09:19:57;;;;;;;10.07;7.90;;;16.30;99.90;;;;;;5020555;28;20932;-73
2022/10/05 09:22:36;;;;;;;11.10;9.13;;;16.30;99.90;;;;;;5020795;28;21052;-75
2022/10/05 09:25:21;;;;;;;10.60;7.90;;;16.20;99.90;;;;;;5025355;28;20680;-75
2022/10/05 09:28:03;;;;;;;10.27;7.80;;;16.20;99.90;;;;;;5011197;28;20486;-77
2022/10/05 09:30:48;;;;;;;8.10;7.40;;;16.30;99.90;;;;;;5021868;28;20877;-76
2022/10/05 09:33:56;;;;;;;12.68;7.82;;;16.30;99.90;;;;;;5014302;28;20548;-77
2022/10/05 09:37:09;;;;;;;9.67;7.93;;;16.30;99.90;;;;;;5021787;28;20235;-76
2022/10/05 09:40:06;;;;;;;8.73;7.20;;;16.30;99.90;;;;;;5016643;28;20550;-76
2022/10/05 09:43:09;;;;;;;12.70;7.90;;;16.40;99.90;;;;;;5004825;28;20575;-77
2022/10/05 09:45:55;;;;;;;8.97;8.17;;;16.40;99.90;;;;;;5024542;28;20941;-74
2022/10/05 09:48:58;;;;;;;10.23;8.37;;;16.40;99.90;;;;;;5011973;28;20566;-75
2022/10/05 09:52:01;;;;;;;12.60;7.90;;;16.30;99.90;;;;;;5015177;28;20456;-75
2022/10/05 09:54:55;;;;;;;9.77;8.73;;;16.30;99.90;;;;;;5008107;28;20503;-76
2022/10/05 09:58:11;;;;;;;8.40;7.13;;;16.60;99.90;;;;;;5015147;28;20559;-74
2022/10/05 10:00:50;;;;;;;7.23;6.57;;;16.70;99.90;;;;;;5013665;28;20455;-77
2022/10/05 10:03:44;;;;;;;9.17;6.50;;;16.80;99.90;;;;;;5026284;28;20562;-75
2022/10/05 10:06:54;;;;;;;8.50;6.93;;;16.90;99.90;;;;;;5020283;28;20482;-76
2022/10/05 10:09:34;;;;;;;6.90;6.20;;;16.80;99.90;;;;;;5027325;28;20530;-76
2022/10/05 10:12:22;;;;;;;7.47;6.13;;;16.70;99.90;;;;;;5035998;28;20466;-74
2022/10/05 10:15:16;;;;;;;7.20;5.50;;;16.70;99.90;;;;;;5026823;28;20520;-76
2022/10/05 10:18:10;;;;;;;7.80;6.33;;;16.70;99.90;;;;;;5021331;28;20293;-74
2022/10/05 10:20:57;;;;;;;6.87;5.57;;;16.70;99.90;;;;;;5021699;28;20866;-74
2022/10/05 10:23:37;;;;;;;6.60;5.90;;;16.80;99.90;;;;;;5024496;28;20517;-76
2022/10/05 10:26:31;;;;;;;6.40;5.50;;;16.80;99.90;;;;;;5017865;28;20977;-74
2022/10/05 10:29:28;;;;;;;5.50;5.10;;;16.90;99.90;;;;;;5013190;28;20555;-74
2022/10/05 10:32:08;;;;;;;8.80;5.93;;;17.00;99.90;;;;;;5013546;28;20484;-77
2022/10/05 10:35:08;;;;;;;9.23;5.57;;;17.20;99.90;;;;;;5009007;28;20447;-76
2022/10/05 10:37:57;;;;;;;7.23;5.30;;;17.40;99.90;;;;;;5016941;28;20477;-77
2022/10/05 10:40:37;;;;;;;6.17;5.53;;;17.50;99.90;;;;;;5032994;28;20447;-75
2022/10/05 10:43:49;;;;;;;4.80;4.10;;;17.80;99.90;;;;;;5029128;28;20949;-74
2022/10/05 10:46:34;;;;;;;6.13;4.90;;;18.30;99.90;;;;;;5013053;28;20466;-74
2022/10/05 10:49:16;;;;;;;6.80;4.73;;;18.50;99.90;;;;;;5015969;28;20467;-78
2022/10/05 10:52:24;;;;;;;5.63;4.80;;;18.50;99.90;;;;;;5013866;28;21053;-76
2022/10/05 10:55:21;;;;;;;6.37;4.40;;;18.60;99.90;;;;;;5013748;28;20449;-76
2022/10/05 10:58:03;;;;;;;6.10;5.17;;;18.30;99.90;;;;;;5002643;28;20501;-75
2022/10/05 11:00:43;;;;;;;4.30;3.90;;;18.40;99.90;;;;;;5017536;28;20526;-75
2022/10/05 11:04:01;;;;;;;6.57;5.30;;;18.40;99.90;;;;;;5032319;28;20566;-77
2022/10/05 11:07:09;;;;;;;8.07;3.87;;;18.50;99.90;;;;;;5014602;28;20499;-77
2022/10/05 11:09:57;;;;;;;4.93;4.43;;;18.70;99.90;;;;;;5008774;28;20931;-75
2022/10/05 11:12:59;;;;;;;7.73;4.80;;;18.60;99.90;;;;;;5020883;28;20490;-76
2022/10/05 11:15:42;;;;;;;8.60;3.50;;;18.70;99.90;;;;;;5013620;28;20601;-77
2022/10/05 11:18:19;;;;;;;6.27;4.13;;;18.80;99.90;;;;;;5018641;28;20477;-75
2022/10/05 11:21:17;;;;;;;5.63;4.10;;;18.80;99.90;;;;;;5023859;28;20492;-78
2022/10/05 11:24:37;;;;;;;11.10;3.90;;;18.80;99.90;;;;;;5009754;28;20494;-77
2022/10/05 11:27:30;;;;;;;6.50;4.03;;;18.70;99.90;;;;;;5007100;28;20894;-77
2022/10/05 11:30:24;;;;;;;4.97;3.60;;;19.00;99.90;;;;;;5004165;28;20541;-78
2022/10/05 11:33:24;;;;;;;5.13;3.10;;;18.90;99.90;;;;;;5019560;28;20513;-75
2022/10/05 11:36:04;;;;;;;3.70;3.33;;;18.80;99.90;;;;;;5011824;28;20758;-77
2022/10/05 11:39:13;;;;;;;4.67;3.93;;;19.10;99.90;;;;;;5011645;28;20514;-75
2022/10/05 11:42:11;;;;;;;4.27;3.30;;;19.00;99.90;;;;;;5019842;28;20474;-76
2022/10/05 11:45:10;;;;;;;14.80;4.57;;;19.00;99.90;;;;;;4991978;28;20499;-78
2022/10/05 11:47:52;;;;;;;7.77;3.50;;;19.20;99.90;;;;;;5018245;28;20895;-76
2022/10/05 11:50:25;;;;;;;5.30;2.93;;;19.30;99.90;;;;;;5018635;28;20448;-74
2022/10/05 11:52:58;;;;;;;6.13;3.17;;;19.30;99.90;;;;;;5016937;28;20536;-75
2022/10/05 11:55:28;;;;;;;5.70;3.10;;;19.40;99.90;;;;;;5028515;28;20591;-77
2022/10/05 11:58:00;;;;;;;5.23;3.03;;;19.50;99.90;;;;;;5012266;28;20468;-72
2022/10/05 12:00:34;;;;;;;3.00;2.70;;;19.50;99.90;;;;;;5022290;28;20454;-78
2022/10/05 12:03:19;;;;;;;6.77;3.70;;;19.60;99.90;;;;;;5025575;28;20509;-77
2022/10/05 12:05:58;;;;;;;3.87;2.63;;;19.30;99.90;;;;;;5021760;28;21051;-76
2022/10/05 12:08:36;;;;;;;3.27;2.43;;;19.30;99.90;;;;;;5018798;28;21025;-75
2022/10/05 12:11:15;;;;;;;7.77;3.13;;;19.20;99.90;;;;;;5020930;28;20941;-74
2022/10/05 12:13:51;;;;;;;4.93;2.97;;;19.30;99.90;;;;;;5021841;28;20493;-75
2022/10/05 12:16:24;;;;;;;5.27;3.60;;;19.40;99.90;;;;;;5021502;28;20460;-76
2022/10/05 12:18:58;;;;;;;3.50;2.80;;;19.50;99.90;;;;;;5026062;28;20462;-77
2022/10/05 12:21:32;;;;;;;4.13;3.30;;;19.80;99.90;;;;;;5024603;28;20475;-74
2022/10/05 12:24:06;;;;;;;5.27;3.30;;;19.90;99.90;;;;;;5030587;28;20435;-77
2022/10/05 12:26:39;;;;;;;4.60;3.00;;;19.90;99.90;;;;;;5017231;28;20530;-77
2022/10/05 12:29:13;;;;;;;14.23;4.40;;;19.80;99.90;;;;;;5016819;28;20550;-75
2022/10/05 12:31:51;;;;;;;5.23;3.20;;;19.70;99.90;;;;;;5041214;28;20427;-74
2022/10/05 12:34:26;;;;;;;4.23;3.30;;;19.60;99.90;;;;;;5024296;28;20481;-75
2022/10/05 12:36:57;;;;;;;4.80;3.30;;;19.80;99.90;;;;;;5026100;28;20467;-74
2022/10/05 12:39:36;;;;;;;5.10;4.43;;;19.80;99.90;;;;;;5024798;28;20509;-76
2022/10/05 12:42:15;;;;;;;4.30;3.00;;;19.90;99.90;;;;;;5009421;28;20486;-76
2022/10/05 12:44:58;;;;;;;5.60;3.23;;;20.00;99.90;;;;;;5017992;28;20447;-76
2022/10/05 12:47:36;;;;;;;6.13;3.60;;;20.20;99.90;;;;;;5012016;28;20894;-74
2022/10/05 12:50:19;;;;;;;3.50;3.10;;;19.90;99.90;;;;;;5020338;28;20520;-75
2022/10/05 12:53:04;;;;;;;3.60;3.10;;;19.80;99.90;;;;;;5022334;28;20494;-77
2022/10/05 12:55:40;;;;;;;10.47;5.47;;;19.80;99.90;;;;;;5019431;28;20443;-75
2022/10/05 12:58:24;;;;;;;6.27;3.43;;;19.80;99.90;;;;;;5024939;28;20561;-79
2022/10/05 13:01:00;;;;;;;8.33;5.30;;;19.80;99.90;;;;;;5018500;28;20439;-76
2022/10/05 13:03:33;;;;;;;4.10;3.70;;;19.70;99.90;;;;;;5027774;28;20477;-77
2022/10/05 13:06:15;;;;;;;4.33;3.70;;;19.60;99.90;;;;;;5024927;28;20448;-76
2022/10/05 13:08:49;;;;;;;3.77;3.30;;;19.60;99.90;;;;;;5033632;28;20510;-73
2022/10/05 13:11:23;;;;;;;5.10;3.90;;;19.70;99.90;;;;;;5025888;28;20449;-73
2022/10/05 13:14:01;;;;;;;4.90;3.20;;;19.60;99.90;;;;;;5012650;28;20461;-76
2022/10/05 13:16:37;;;;;;;4.20;3.07;;;19.70;99.90;;;;;;5012883;28;20448;-74
2022/10/05 13:19:17;;;;;;;3.67;3.23;;;19.60;99.90;;;;;;5015409;28;20475;-75
2022/10/05 13:22:16;;;;;;;4.97;3.10;;;19.60;99.90;;;;;;5016601;28;20534;-77
2022/10/05 13:24:54;;;;;;;8.50;3.70;;;19.50;99.90;;;;;;5013742;28;20477;-77
2022/10/05 13:27:27;;;;;;;6.67;4.50;;;19.50;99.90;;;;;;5014951;28;20953;-74
2022/10/05 13:30:01;;;;;;;6.43;3.40;;;19.40;99.90;;;;;;5010926;28;20458;-72
2022/10/05 13:32:34;;;;;;;4.20;3.77;;;19.50;99.90;;;;;;5017928;28;20450;-75
2022/10/05 13:35:19;;;;;;;5.70;3.30;;;19.60;99.90;;;;;;5016986;28;20487;-73
2022/10/05 13:38:00;;;;;;;3.90;3.30;;;19.60;99.90;;;;;;5017163;28;20518;-75
2022/10/05 13:40:35;;;;;;;6.93;4.70;;;19.60;99.90;;;;;;5020370;28;20498;-76
2022/10/05 13:43:15;;;;;;;6.53;3.83;;;19.50;99.90;;;;;;5020619;28;20487;-75